createdAt,value
2022-10-11T00:01:23.400Z,6.03
2022-10-11T00:03:50.001Z,5.32
2022-10-11T00:06:16.793Z,5.90
2022-10-11T00:08:43.329Z,4.68
2022-10-11T00:11:10.327Z,5.20
2022-10-11T00:13:36.930Z,8.95
2022-10-11T00:16:08.885Z,4.60
2022-10-11T00:18:35.718Z,6.88
2022-10-11T00:21:08.498Z,5.03
2022-10-11T00:23:35.528Z,4.68
2022-10-11T00:26:05.773Z,4.10
2022-10-11T00:28:33.324Z,3.75
2022-10-11T00:31:00.115Z,3.95
2022-10-11T00:33:26.716Z,4.47
2022-10-11T00:35:53.307Z,3.90
2022-10-11T00:38:20.053Z,3.90
2022-10-11T00:40:46.693Z,3.13
2022-10-11T00:43:22.430Z,4.40
2022-10-11T00:45:58.221Z,3.72
2022-10-11T00:48:32.440Z,4.57
2022-10-11T00:51:02.342Z,5.43
2022-10-11T00:53:30.651Z,3.85
2022-10-11T00:56:06.374Z,4.07
2022-10-11T01:01:02.361Z,4.13
2022-10-11T01:03:31.478Z,7.45
2022-10-11T01:05:57.991Z,4.03
2022-10-11T01:08:25.791Z,4.03
2022-10-11T01:10:52.592Z,6.22
2022-10-11T01:13:37.353Z,4.68
2022-10-11T01:16:38.038Z,7.05
2022-10-11T01:19:38.363Z,6.70
2022-10-11T01:22:46.884Z,5.85
2022-10-11T01:25:19.417Z,6.85
2022-10-11T01:27:55.464Z,9.15
2022-10-11T01:33:18.986Z,5.93
2022-10-11T01:35:49.235Z,5.82
2022-10-11T01:38:33.779Z,5.80
2022-10-11T01:41:06.813Z,6.35
2022-10-11T01:43:35.165Z,5.43
2022-10-11T01:46:03.006Z,7.53
2022-10-11T01:48:29.906Z,5.45
2022-10-11T01:50:58.759Z,7.10
2022-10-11T01:53:25.239Z,7.00
2022-10-11T01:56:05.950Z,7.75
2022-10-11T01:58:47.849Z,5.78
2022-10-11T02:01:34.658Z,5.60
2022-10-11T02:04:28.995Z,5.85
2022-10-11T02:07:19.577Z,7.57
2022-10-11T02:09:52.442Z,4.97
2022-10-11T02:12:37.723Z,4.82
2022-10-11T02:15:09.286Z,5.22
2022-10-11T02:17:43.422Z,4.70
2022-10-11T02:20:14.586Z,3.30
2022-10-11T02:22:45.955Z,4.45
2022-10-11T02:25:18.726Z,4.78
2022-10-11T02:27:48.260Z,3.22
2022-10-11T02:30:16.859Z,8.05
2022-10-11T02:32:46.546Z,4.70
2022-10-11T02:35:14.189Z,4.07
2022-10-11T02:37:53.254Z,6.13
2022-10-11T02:40:40.351Z,4.57
2022-10-11T02:43:36.728Z,4.70
2022-10-11T02:46:06.009Z,4.10
2022-10-11T02:48:33.725Z,5.50
2022-10-11T02:51:00.261Z,3.65
2022-10-11T02:53:27.205Z,3.63
2022-10-11T02:55:55.317Z,2.75
2022-10-11T02:58:23.142Z,3.28
2022-10-11T03:00:49.836Z,3.42
2022-10-11T03:03:16.367Z,3.75
2022-10-11T03:05:43.913Z,4.88
2022-10-11T03:08:14.044Z,3.53
2022-10-11T03:10:41.757Z,2.75
2022-10-11T03:13:08.580Z,7.82
2022-10-11T03:15:35.397Z,6.25
2022-10-11T03:18:01.956Z,3.95
2022-10-11T03:20:28.528Z,4.32
2022-10-11T03:22:55.089Z,4.80
2022-10-11T03:25:21.617Z,14.63
2022-10-11T03:27:48.129Z,4.95
2022-10-11T03:30:18.339Z,3.45
2022-10-11T03:32:45.090Z,4.40
2022-10-11T03:35:11.676Z,6.63
2022-10-11T03:37:38.284Z,4.57
2022-10-11T03:40:06.507Z,5.40
2022-10-11T03:42:33.043Z,4.15
2022-10-11T03:45:01.740Z,4.03
2022-10-11T03:47:28.320Z,4.75
2022-10-11T03:49:54.847Z,4.65
2022-10-11T03:52:21.469Z,5.53
2022-10-11T03:54:48.242Z,5.13
2022-10-11T03:57:15.098Z,4.13
2022-10-11T03:59:41.660Z,5.45
2022-10-11T04:02:08.287Z,10.88
2022-10-11T04:04:35.000Z,4.68
2022-10-11T04:07:01.565Z,4.32
2022-10-11T04:09:28.472Z,5.45
2022-10-11T04:11:54.990Z,5.22
2022-10-11T04:14:21.547Z,4.60
2022-10-11T04:16:48.084Z,4.80
2022-10-11T04:19:14.743Z,4.90
2022-10-11T04:21:41.505Z,4.75
2022-10-11T04:24:09.517Z,6.65
2022-10-11T04:26:36.045Z,8.45
2022-10-11T04:29:02.699Z,3.10
2022-10-11T04:31:29.222Z,4.43
2022-10-11T04:33:57.029Z,4.38
2022-10-11T04:36:24.196Z,4.88
2022-10-11T04:38:51.095Z,5.18
2022-10-11T04:41:17.640Z,4.78
2022-10-11T04:43:44.293Z,4.53
2022-10-11T04:46:11.627Z,4.78
2022-10-11T04:48:38.581Z,4.97
2022-10-11T04:51:05.449Z,5.45
2022-10-11T04:53:32.006Z,5.35
2022-10-11T04:56:04.353Z,4.40
2022-10-11T04:58:32.452Z,3.58
2022-10-11T05:00:58.987Z,7.07
2022-10-11T05:03:26.283Z,4.63
2022-10-11T05:05:53.151Z,5.40
2022-10-11T05:08:20.044Z,4.85
2022-10-11T05:11:00.435Z,6.30
2022-10-11T05:13:28.834Z,5.05
2022-10-11T05:15:55.524Z,5.07
2022-10-11T05:18:22.473Z,6.90
2022-10-11T05:20:57.861Z,7.38
2022-10-11T05:23:24.557Z,6.88
2022-10-11T05:25:51.130Z,5.68
2022-10-11T05:28:17.722Z,7.95
2022-10-11T05:30:44.323Z,6.40
2022-10-11T05:33:10.855Z,7.13
2022-10-11T05:35:37.387Z,6.43
2022-10-11T05:38:03.946Z,4.82
2022-10-11T05:40:30.460Z,10.40
2022-10-11T05:42:56.976Z,5.75
2022-10-11T05:45:23.567Z,5.95
2022-10-11T05:47:50.087Z,4.60
2022-10-11T05:50:20.755Z,5.28
2022-10-11T05:52:49.917Z,5.45
2022-10-11T05:55:16.579Z,5.18
2022-10-11T05:57:43.130Z,5.38
2022-10-11T06:00:10.497Z,5.43
2022-10-11T06:02:37.019Z,3.95
2022-10-11T06:05:03.781Z,4.10
2022-10-11T06:07:30.521Z,5.03
2022-10-11T06:09:57.100Z,3.53
2022-10-11T06:12:23.616Z,3.97
2022-10-11T06:14:50.185Z,3.53
2022-10-11T06:17:16.880Z,5.18
2022-10-11T06:19:43.416Z,3.85
2022-10-11T06:22:11.784Z,3.80
2022-10-11T06:24:38.309Z,4.68
2022-10-11T06:27:04.888Z,4.15
2022-10-11T06:29:31.531Z,3.97
2022-10-11T06:31:58.552Z,5.95
2022-10-11T06:34:25.099Z,3.97
2022-10-11T06:36:52.255Z,4.35
2022-10-11T06:39:18.842Z,5.60
2022-10-11T06:41:46.018Z,5.10
2022-10-11T06:44:14.419Z,5.82
2022-10-11T06:46:41.636Z,4.00
2022-10-11T06:49:08.449Z,4.43
2022-10-11T06:51:35.755Z,5.25
2022-10-11T06:54:03.449Z,3.58
2022-10-11T06:56:31.341Z,5.15
2022-10-11T06:58:59.267Z,3.03
2022-10-11T07:01:26.619Z,4.57
2022-10-11T07:03:55.397Z,4.03
2022-10-11T07:06:26.903Z,2.80
2022-10-11T07:08:54.488Z,2.85
2022-10-11T07:11:26.757Z,2.20
2022-10-11T07:13:55.633Z,2.50
2022-10-11T07:16:23.399Z,3.22
2022-10-11T07:18:59.889Z,2.47
2022-10-11T07:21:28.178Z,2.00
2022-10-11T07:23:54.738Z,2.83
2022-10-11T07:26:21.366Z,2.00
2022-10-11T07:28:48.036Z,1.92
2022-10-11T07:31:18.087Z,2.60
2022-10-11T07:33:45.036Z,2.20
2022-10-11T07:36:13.110Z,1.90
2022-10-11T07:38:44.283Z,2.75
2022-10-11T07:41:10.958Z,2.00
2022-10-11T07:43:38.731Z,1.83
2022-10-11T07:46:06.006Z,3.42
2022-10-11T07:48:35.148Z,4.35
2022-10-11T07:51:12.703Z,2.55
2022-10-11T07:53:44.780Z,2.38
2022-10-11T07:56:13.954Z,2.33
2022-10-11T07:58:41.752Z,2.78
2022-10-11T08:01:10.546Z,2.10
2022-10-11T08:03:38.239Z,1.42
2022-10-11T08:06:08.943Z,1.70
2022-10-11T08:08:36.781Z,1.27
2022-10-11T08:11:03.880Z,1.77
2022-10-11T08:13:30.794Z,1.60
2022-10-11T08:15:57.569Z,1.67
2022-10-11T08:18:24.713Z,1.58
2022-10-11T08:20:51.503Z,1.77
2022-10-11T08:23:19.027Z,1.52
2022-10-11T08:25:47.581Z,1.00
2022-10-11T08:28:17.408Z,1.00
2022-10-11T08:30:49.208Z,1.45
2022-10-11T08:33:17.230Z,1.63
2022-10-11T08:35:44.381Z,1.35
2022-10-11T08:38:11.411Z,1.27
2022-10-11T08:40:38.764Z,2.63
2022-10-11T08:43:12.074Z,1.35
2022-10-11T08:45:50.216Z,2.40
2022-10-11T08:48:34.293Z,1.52
2022-10-11T08:51:01.857Z,1.83
2022-10-11T08:53:51.711Z,0.93
2022-10-11T08:56:20.579Z,1.10
2022-10-11T08:58:57.700Z,1.63
2022-10-11T09:01:27.262Z,9.85
2022-10-11T09:03:54.345Z,2.13
2022-10-11T09:06:23.707Z,1.30
2022-10-11T09:08:53.003Z,2.08
2022-10-11T09:11:25.373Z,2.47
2022-10-11T09:14:13.944Z,2.17
2022-10-11T09:17:01.807Z,2.72
2022-10-11T09:19:58.603Z,2.63
2022-10-11T09:22:46.715Z,2.35
2022-10-11T09:25:22.285Z,3.08
2022-10-11T09:28:05.729Z,2.17
2022-10-11T09:30:33.567Z,1.85
2022-10-11T09:33:28.761Z,6.85
2022-10-11T09:35:57.117Z,2.22
2022-10-11T09:38:43.475Z,1.95
2022-10-11T09:43:48.529Z,2.20
2022-10-11T09:46:23.373Z,2.25
2022-10-11T09:48:50.975Z,2.53
2022-10-11T09:51:21.895Z,1.73
2022-10-11T09:53:51.115Z,1.58
2022-10-11T09:56:17.881Z,1.90
2022-10-11T09:58:44.709Z,5.18
2022-10-11T10:01:14.128Z,1.95
2022-10-11T10:03:43.407Z,1.63
2022-10-11T10:06:27.191Z,2.53
2022-10-11T10:08:55.136Z,1.85
2022-10-11T10:11:21.786Z,2.20
2022-10-11T10:13:51.684Z,2.88
2022-10-11T10:16:30.366Z,2.50
2022-10-11T10:19:21.635Z,3.35
2022-10-11T10:21:50.818Z,2.17
2022-10-11T10:24:31.757Z,3.30
2022-10-11T10:27:29.452Z,3.13
2022-10-11T10:30:19.489Z,2.05
2022-10-11T10:32:59.834Z,1.92
2022-10-11T10:35:26.396Z,2.65
2022-10-11T10:38:08.106Z,1.77
2022-10-11T10:40:56.676Z,2.45
2022-10-11T10:43:26.639Z,1.80
2022-10-11T10:45:55.863Z,2.45
2022-10-11T10:49:23.614Z,1.65
2022-10-11T10:52:05.345Z,1.35
2022-10-11T10:55:08.074Z,1.65
2022-10-11T10:58:04.498Z,1.55
2022-10-11T11:00:41.570Z,1.52
2022-10-11T11:03:34.022Z,1.52
2022-10-11T11:06:07.790Z,1.63
2022-10-11T11:08:37.365Z,1.23
2022-10-11T11:11:28.507Z,1.55
2022-10-11T11:13:54.981Z,2.20
2022-10-11T11:16:54.567Z,4.75
2022-10-11T11:19:30.652Z,8.90
2022-10-11T11:22:03.285Z,3.38
2022-10-11T11:24:48.443Z,2.17
2022-10-11T11:27:36.529Z,2.72
2022-10-11T11:30:09.682Z,2.20
2022-10-11T11:33:02.366Z,1.30
2022-10-11T11:35:42.874Z,1.58
2022-10-11T11:38:29.884Z,1.63
2022-10-11T11:41:04.988Z,1.73
2022-10-11T11:43:36.891Z,1.33
2022-10-11T11:46:12.566Z,2.70
2022-10-11T11:48:39.511Z,1.77
2022-10-11T11:51:12.973Z,3.35
2022-10-11T11:53:50.924Z,3.20
2022-10-11T11:56:33.305Z,1.77
2022-10-11T11:59:09.980Z,1.83
2022-10-11T12:01:52.702Z,1.80
2022-10-11T12:04:28.622Z,1.42
2022-10-11T12:07:22.184Z,1.20
2022-10-11T12:09:55.275Z,1.85
2022-10-11T12:12:35.435Z,1.60
2022-10-11T12:15:25.165Z,1.58
2022-10-11T12:17:57.622Z,1.45
2022-10-11T12:20:41.291Z,1.58
2022-10-11T12:23:29.475Z,1.23
2022-10-11T12:26:19.221Z,2.72
2022-10-11T12:29:02.364Z,2.67
2022-10-11T12:31:32.450Z,1.58
2022-10-11T12:34:01.987Z,0.85
2022-10-11T12:36:29.593Z,6.00
2022-10-11T12:39:20.876Z,1.67
2022-10-11T12:41:47.369Z,4.72
2022-10-11T12:44:22.912Z,4.18
2022-10-11T12:46:55.430Z,4.72
2022-10-11T12:49:29.575Z,5.20
2022-10-11T12:52:17.900Z,1.83
2022-10-11T12:54:54.336Z,0.90
2022-10-11T12:57:46.511Z,0.82
2022-10-11T13:00:29.917Z,0.68
2022-10-11T13:03:05.871Z,0.70
2022-10-11T13:05:45.071Z,0.80
2022-10-11T13:08:18.719Z,1.00
2022-10-11T13:10:47.316Z,0.60
2022-10-11T13:13:42.718Z,1.42
2022-10-11T13:18:45.055Z,2.15
2022-10-11T13:21:36.122Z,3.35
2022-10-11T13:24:24.150Z,4.43
2022-10-11T13:26:54.526Z,1.83
2022-10-11T13:29:29.985Z,0.68
2022-10-11T13:31:56.648Z,0.75
2022-10-11T13:34:24.260Z,1.65
2022-10-11T13:36:58.739Z,0.85
2022-10-11T13:39:31.448Z,3.33
2022-10-11T13:41:59.668Z,1.17
2022-10-11T13:44:26.889Z,0.60
2022-10-11T13:46:53.791Z,1.05
2022-10-11T13:49:37.043Z,3.20
2022-10-11T13:52:17.797Z,1.27
2022-10-11T13:54:55.931Z,1.48
2022-10-11T13:57:37.768Z,1.13
2022-10-11T14:00:17.199Z,1.10
2022-10-11T14:02:56.063Z,1.35
2022-10-11T14:05:32.531Z,1.27
2022-10-11T14:08:02.415Z,1.90
2022-10-11T14:10:30.235Z,1.25
2022-10-11T14:13:23.196Z,0.98
2022-10-11T14:16:09.918Z,0.93
2022-10-11T14:18:43.786Z,2.80
2022-10-11T14:21:19.420Z,3.67
2022-10-11T14:23:54.158Z,1.13
2022-10-11T14:28:56.720Z,1.95
2022-10-11T14:31:23.827Z,1.67
2022-10-11T14:33:50.441Z,2.47
2022-10-11T14:36:17.021Z,2.25
2022-10-11T14:38:43.551Z,3.83
2022-10-11T14:41:10.116Z,4.70
2022-10-11T14:43:36.689Z,34.20
2022-10-11T14:46:03.445Z,120.30
2022-10-11T14:48:54.437Z,3.28
2022-10-11T14:51:21.988Z,3.80
2022-10-11T14:53:48.896Z,1.85
2022-10-11T14:56:20.478Z,2.03
2022-10-11T14:58:48.146Z,2.22
2022-10-11T15:01:16.982Z,4.10
2022-10-11T15:03:43.782Z,9.13
2022-10-11T15:06:20.469Z,1.90
2022-10-11T15:08:47.723Z,7.88
2022-10-11T15:11:17.296Z,2.47
2022-10-11T15:13:44.444Z,2.72
2022-10-11T15:16:13.826Z,18.17
2022-10-11T15:18:40.518Z,65.03
2022-10-11T15:21:08.019Z,48.33
2022-10-11T15:23:34.537Z,34.13
2022-10-11T15:26:01.169Z,60.60
2022-10-11T15:28:31.363Z,45.95
2022-10-11T15:30:58.973Z,27.02
2022-10-11T15:33:26.173Z,28.58
2022-10-11T15:35:53.835Z,32.63
2022-10-11T15:38:25.675Z,37.85
2022-10-11T15:40:53.289Z,18.83
2022-10-11T15:43:24.407Z,31.00
2022-10-11T15:45:51.790Z,12.93
2022-10-11T15:48:19.713Z,27.95
2022-10-11T15:50:46.497Z,33.55
2022-10-11T15:53:18.998Z,36.22
2022-10-11T15:55:49.599Z,29.02
2022-10-11T15:58:25.295Z,26.55
2022-10-11T16:00:55.375Z,20.38
2022-10-11T16:03:25.314Z,15.10
2022-10-11T16:05:52.633Z,13.23
2022-10-11T16:08:19.627Z,11.98
2022-10-11T16:10:46.427Z,10.05
2022-10-11T16:13:13.036Z,10.25
2022-10-11T16:15:42.124Z,9.02
2022-10-11T16:18:12.929Z,10.93
2022-10-11T16:20:40.957Z,9.18
2022-10-11T16:23:07.797Z,6.50
2022-10-11T16:25:34.666Z,5.80
2022-10-11T16:28:02.406Z,6.43
2022-10-11T16:30:29.319Z,4.53
2022-10-11T16:32:56.017Z,4.97
2022-10-11T16:35:23.164Z,12.50
2022-10-11T16:37:50.243Z,22.50
2022-10-11T16:40:17.668Z,12.98
2022-10-11T16:42:45.921Z,3.75
2022-10-11T16:45:14.434Z,2.20
2022-10-11T16:47:42.289Z,4.35
2022-10-11T16:50:10.016Z,3.60
2022-10-11T16:52:36.822Z,5.38
2022-10-11T16:55:03.626Z,6.10
2022-10-11T16:57:30.179Z,14.77
2022-10-11T16:59:56.892Z,5.57
2022-10-11T17:02:29.927Z,4.68
2022-10-11T17:04:58.859Z,9.63
2022-10-11T17:07:25.581Z,7.25
2022-10-11T17:09:55.079Z,4.07
2022-10-11T17:12:23.699Z,6.28
2022-10-11T17:14:50.861Z,4.35
2022-10-11T17:17:19.024Z,5.35
2022-10-11T17:19:47.654Z,13.40
2022-10-11T17:22:18.356Z,4.78
2022-10-11T17:24:45.424Z,5.30
2022-10-11T17:27:12.080Z,5.90
2022-10-11T17:29:38.933Z,7.18
2022-10-11T17:32:05.656Z,4.50
2022-10-11T17:34:32.321Z,8.90
2022-10-11T17:36:58.936Z,5.25
2022-10-11T17:39:25.850Z,11.02
2022-10-11T17:41:52.965Z,10.70
2022-10-11T17:44:20.009Z,7.88
2022-10-11T17:46:46.934Z,14.43
2022-10-11T17:49:13.993Z,8.13
2022-10-11T17:51:41.262Z,7.13
2022-10-11T17:54:12.401Z,7.72
2022-10-11T17:56:42.926Z,6.45
2022-10-11T17:59:15.912Z,12.30
2022-10-11T18:01:42.865Z,7.03
2022-10-11T18:04:16.370Z,8.32
2022-10-11T18:06:45.102Z,9.23
2022-10-11T18:09:13.309Z,9.65
2022-10-11T18:11:39.866Z,8.52
2022-10-11T18:14:06.527Z,9.57
2022-10-11T18:16:34.917Z,8.52
2022-10-11T18:19:03.527Z,8.85
2022-10-11T18:21:34.394Z,8.00
2022-10-11T18:24:03.075Z,8.20
2022-10-11T18:26:30.894Z,8.65
2022-10-11T18:28:58.526Z,9.90
2022-10-11T18:31:29.262Z,8.82
2022-10-11T18:33:56.023Z,9.48
2022-10-11T18:36:25.192Z,9.75
2022-10-11T18:38:58.342Z,9.20
2022-10-11T18:41:33.557Z,11.82
2022-10-11T18:44:02.767Z,12.33
2022-10-11T18:46:29.951Z,8.65
2022-10-11T18:48:58.611Z,10.93
2022-10-11T18:51:30.619Z,12.27
2022-10-11T18:54:01.477Z,11.80
2022-10-11T18:56:29.653Z,14.07
2022-10-11T18:58:57.326Z,15.02
2022-10-11T19:01:25.320Z,23.50
2022-10-11T19:03:54.518Z,13.52
2022-10-11T19:06:24.243Z,10.93
2022-10-11T19:08:58.975Z,14.48
2022-10-11T19:11:25.721Z,14.65
2022-10-11T19:14:00.334Z,15.30
2022-10-11T19:16:29.550Z,18.10
2022-10-11T19:18:57.377Z,16.30
2022-10-11T19:21:24.849Z,14.73
2022-10-11T19:23:52.369Z,15.07
2022-10-11T19:26:28.881Z,15.85
2022-10-11T19:29:00.827Z,17.17
2022-10-11T19:31:28.378Z,17.13
2022-10-11T19:33:57.456Z,15.75
2022-10-11T19:36:24.444Z,16.52
2022-10-11T19:38:52.087Z,16.90
2022-10-11T19:41:20.174Z,15.45
2022-10-11T19:43:47.217Z,15.20
2022-10-11T19:46:27.291Z,17.50
2022-10-11T19:49:02.855Z,14.40
2022-10-11T19:51:34.839Z,13.75
2022-10-11T19:54:03.806Z,12.60
2022-10-11T19:56:31.925Z,14.30
2022-10-11T19:58:59.209Z,13.75
2022-10-11T20:01:28.935Z,12.57
2022-10-11T20:04:00.617Z,13.13
2022-10-11T20:06:28.490Z,17.25
2022-10-11T20:09:23.863Z,11.75
2022-10-11T20:11:42.952Z,15.23
2022-10-11T20:14:09.489Z,11.30
2022-10-11T20:16:36.275Z,12.35
2022-10-11T20:19:03.973Z,15.02
2022-10-11T20:21:31.095Z,12.65
2022-10-11T20:24:01.131Z,15.63
2022-10-11T20:26:29.130Z,11.50
2022-10-11T20:28:57.190Z,14.60
2022-10-11T20:31:29.677Z,10.48
2022-10-11T20:33:58.519Z,9.52
2022-10-11T20:36:29.481Z,10.25
2022-10-11T20:38:57.644Z,14.35
2022-10-11T20:41:27.151Z,9.93
2022-10-11T20:43:55.573Z,14.23
2022-10-11T20:46:24.372Z,10.90
2022-10-11T20:49:01.168Z,10.30
2022-10-11T20:51:29.138Z,9.85
2022-10-11T20:53:56.436Z,10.70
2022-10-11T20:56:23.640Z,9.43
2022-10-11T20:58:52.534Z,9.40
2022-10-11T21:01:21.494Z,8.32
2022-10-11T21:03:48.289Z,9.48
2022-10-11T21:06:14.836Z,10.30
2022-10-11T21:08:41.610Z,8.93
2022-10-11T21:11:09.840Z,11.10
2022-10-11T21:13:36.799Z,8.27
2022-10-11T21:16:14.832Z,8.13
2022-10-11T21:18:41.939Z,8.77
2022-10-11T21:21:11.707Z,7.97
2022-10-11T21:23:39.154Z,9.55
2022-10-11T21:26:08.581Z,12.90
2022-10-11T21:28:35.185Z,9.32
2022-10-11T21:31:10.635Z,7.88
2022-10-11T21:33:38.483Z,8.43
2022-10-11T21:36:07.048Z,11.20
2022-10-11T21:38:34.573Z,8.52
2022-10-11T21:41:10.888Z,7.72
2022-10-11T21:43:38.446Z,10.45
2022-10-11T21:46:15.917Z,9.32
2022-10-11T21:48:42.753Z,10.95
2022-10-11T21:51:23.081Z,7.15
2022-10-11T21:53:50.312Z,19.30
2022-10-11T21:56:16.873Z,7.60
2022-10-11T21:58:43.513Z,10.55
2022-10-11T22:01:10.936Z,5.88
2022-10-11T22:03:37.536Z,29.70
2022-10-11T22:06:05.016Z,10.65
2022-10-11T22:08:31.936Z,7.95
2022-10-11T22:11:00.166Z,8.02
2022-10-11T22:13:28.543Z,9.07
2022-10-11T22:15:58.160Z,6.63
2022-10-11T22:18:25.024Z,5.45
2022-10-11T22:20:51.834Z,4.72
2022-10-11T22:23:19.299Z,13.45
2022-10-11T22:25:46.220Z,8.43
2022-10-11T22:28:12.846Z,7.30
2022-10-11T22:30:39.499Z,6.03
2022-10-11T22:33:06.027Z,5.78
2022-10-11T22:35:37.292Z,8.93
2022-10-11T22:38:06.108Z,6.63
2022-10-11T22:40:32.859Z,6.82
2022-10-11T22:42:59.380Z,9.68
2022-10-11T22:45:25.953Z,11.60
2022-10-11T22:47:52.508Z,12.32
2022-10-11T22:50:19.257Z,6.93
2022-10-11T22:52:45.859Z,5.90
2022-10-11T22:55:18.971Z,5.75
2022-10-11T22:57:46.387Z,9.35
2022-10-11T23:00:13.206Z,7.18
2022-10-11T23:02:39.720Z,6.95
2022-10-11T23:05:06.504Z,8.20
2022-10-11T23:07:33.039Z,8.68
2022-10-11T23:09:59.574Z,7.70
2022-10-11T23:12:26.141Z,7.20
2022-10-11T23:14:52.697Z,6.95
2022-10-11T23:17:19.222Z,11.52
2022-10-11T23:19:45.773Z,8.57
2022-10-11T23:22:12.439Z,7.72
2022-10-11T23:24:39.093Z,6.57
2022-10-11T23:27:06.003Z,8.85
2022-10-11T23:29:32.836Z,6.50
2022-10-11T23:31:59.433Z,9.48
2022-10-11T23:34:26.060Z,8.23
2022-10-11T23:36:52.577Z,21.00
2022-10-11T23:39:19.131Z,8.38
2022-10-11T23:41:45.677Z,7.47
2022-10-11T23:44:12.273Z,7.03
2022-10-11T23:46:38.797Z,9.85
2022-10-11T23:49:05.433Z,7.88
2022-10-11T23:51:32.199Z,8.02
2022-10-11T23:53:58.794Z,7.63
2022-10-11T23:56:25.469Z,7.05
2022-10-11T23:58:52.092Z,9.95
